createdAt,value
2018-06-27T02:55:18.755Z,15.39
2018-06-27T02:56:44.510Z,15.36
2018-06-27T02:58:22.487Z,15.31
2018-06-27T03:56:01.818Z,16.70
2018-06-27T03:57:28.462Z,17.31
2018-06-27T03:58:55.807Z,17.85
2018-06-27T04:00:23.004Z,18.31
2018-06-27T04:01:50.552Z,18.67
2018-06-27T04:03:18.163Z,18.94
2018-06-27T04:04:45.680Z,19.10
2018-06-27T04:06:14.206Z,19.15
2018-06-27T04:07:40.686Z,19.00
2018-06-27T04:09:08.088Z,18.89
2018-06-27T04:10:35.518Z,18.68
2018-06-27T04:12:02.906Z,18.41
2018-06-27T04:13:31.419Z,18.23
2018-06-27T04:14:57.840Z,18.10
2018-06-27T04:16:25.391Z,17.92
2018-06-27T04:17:53.061Z,17.73
2018-06-27T04:19:21.499Z,17.56
2018-06-27T04:20:49.023Z,17.45
2018-06-27T04:22:16.476Z,17.38
2018-06-27T04:23:42.867Z,17.29
2018-06-27T04:25:09.752Z,17.24
2018-06-27T04:26:36.961Z,17.21
2018-06-27T04:28:04.604Z,17.19
2018-06-27T04:29:32.812Z,17.15
2018-06-27T04:30:59.365Z,17.14
2018-06-27T04:32:26.920Z,17.12
2018-06-27T04:33:54.424Z,17.09
2018-06-27T04:35:21.905Z,17.04
2018-06-27T05:24:48.783Z,17.72
2018-06-27T05:26:15.667Z,17.75
2018-06-27T05:27:42.045Z,17.82
2018-06-27T05:29:10.235Z,17.87
2018-06-27T05:30:36.550Z,17.90
2018-06-27T05:32:03.966Z,17.90
2018-06-27T05:33:31.409Z,17.98
2018-06-27T05:34:58.760Z,18.05
2018-06-27T05:36:27.387Z,18.17
2018-06-27T05:37:54.189Z,18.35
2018-06-27T05:39:22.356Z,18.62
2018-06-27T05:40:49.085Z,19.11
2018-06-27T05:42:17.142Z,19.71
2018-06-27T05:43:45.764Z,20.31
2018-06-27T05:45:12.579Z,20.75
2018-06-27T05:46:40.336Z,21.19
2018-06-27T05:48:07.800Z,21.53
2018-06-27T05:49:35.473Z,21.92
2018-06-27T05:51:04.088Z,22.27
2018-06-27T05:52:31.027Z,22.56
2018-06-27T05:53:58.618Z,22.82
2018-06-27T05:55:27.180Z,22.86
2018-06-27T05:56:53.869Z,22.98
2018-06-27T05:58:21.729Z,22.93
2018-06-27T05:59:50.114Z,22.88
2018-06-27T06:01:18.811Z,22.85
2018-06-27T06:02:44.436Z,22.73
2018-06-27T06:04:12.027Z,22.73
2018-06-27T06:05:40.396Z,22.39
2018-06-27T06:07:06.920Z,22.12
2018-06-27T06:08:34.253Z,21.97
2018-06-27T06:10:02.103Z,21.75
2018-06-27T06:11:30.600Z,21.73
2018-06-27T06:12:57.014Z,21.58
2018-06-27T06:14:25.636Z,21.44
2018-06-27T06:15:51.958Z,21.47
2018-06-27T06:17:19.560Z,21.42
2018-06-27T06:18:46.935Z,21.29
2018-06-27T06:20:14.614Z,21.16
2018-06-27T06:21:42.013Z,21.08
2018-06-27T06:23:09.518Z,21.17
2018-06-27T06:24:36.979Z,21.24
2018-06-27T06:26:04.595Z,21.39
2018-06-27T06:27:31.772Z,21.53
2018-06-27T06:28:59.416Z,21.55
2018-06-27T06:30:26.971Z,21.52
2018-06-27T06:31:55.585Z,21.51
2018-06-27T06:33:22.419Z,21.68
2018-06-27T06:34:49.995Z,21.67
2018-06-27T06:36:18.607Z,21.64
2018-06-27T06:37:45.282Z,21.64
2018-06-27T06:39:12.924Z,21.70
2018-06-27T06:40:40.818Z,21.71
2018-06-27T06:42:09.241Z,21.91
2018-06-27T06:43:36.089Z,22.22
2018-06-27T06:45:03.637Z,22.56
2018-06-27T06:46:31.262Z,22.99
2018-06-27T06:47:59.887Z,23.41
2018-06-27T06:49:26.826Z,23.86
2018-06-27T06:50:55.551Z,24.31
2018-06-27T06:52:22.051Z,24.70
2018-06-27T06:53:49.747Z,24.96
2018-06-27T06:55:18.352Z,24.93
2018-06-27T06:56:44.932Z,24.72
2018-06-27T06:58:12.526Z,24.42
2018-06-27T06:59:40.044Z,24.29
2018-06-27T07:01:07.614Z,24.26
2018-06-27T07:02:35.281Z,24.23
2018-06-27T07:04:05.826Z,23.86
2018-06-27T07:05:30.350Z,23.70
2018-06-27T07:06:58.951Z,23.51
2018-06-27T07:08:25.486Z,23.23
2018-06-27T07:09:53.107Z,22.94
2018-06-27T07:11:20.946Z,22.81
2018-06-27T07:12:48.318Z,22.60
2018-06-27T07:14:15.941Z,22.46
2018-06-27T07:15:43.506Z,22.23
2018-06-27T07:17:12.133Z,22.12
2018-06-27T07:18:39.601Z,22.17
2018-06-27T07:20:06.063Z,22.32
2018-06-27T07:21:33.604Z,22.49
2018-06-27T07:23:02.240Z,22.58
2018-06-27T07:24:28.693Z,22.57
2018-06-27T07:25:56.347Z,22.38
2018-06-27T07:27:24.845Z,22.45
2018-06-27T07:28:52.287Z,22.52
2018-06-27T07:30:18.786Z,22.55
2018-06-27T07:31:46.381Z,22.60
2018-06-27T07:33:13.971Z,22.63
2018-06-27T07:34:42.466Z,22.68
2018-06-27T07:36:08.880Z,22.61
2018-06-27T07:37:36.238Z,22.42
2018-06-27T07:39:04.873Z,22.41
2018-06-27T07:40:31.474Z,22.42
2018-06-27T07:41:59.035Z,22.46
2018-06-27T07:43:26.574Z,22.49
2018-06-27T07:44:54.328Z,22.51
2018-06-27T07:46:21.814Z,22.50
2018-06-27T07:47:49.313Z,22.39
2018-06-27T07:49:16.833Z,22.43
2018-06-27T07:50:44.307Z,22.37
2018-06-27T07:52:11.730Z,22.34
2018-06-27T07:53:40.384Z,22.29
2018-06-27T07:55:06.973Z,22.31
2018-06-27T07:56:34.532Z,22.36
2018-06-27T07:58:01.855Z,22.32
2018-06-27T07:59:30.276Z,22.30
2018-06-27T08:00:56.809Z,22.28
2018-06-27T08:02:25.200Z,22.31
2018-06-27T08:03:51.724Z,22.40
2018-06-27T08:05:19.324Z,22.42
2018-06-27T08:06:46.895Z,22.40
2018-06-27T08:08:14.366Z,22.34
2018-06-27T08:09:42.085Z,22.32
2018-06-27T08:11:09.255Z,22.33
2018-06-27T08:12:36.690Z,22.39
2018-06-27T08:14:05.142Z,22.46
2018-06-27T08:15:31.562Z,22.51
2018-06-27T08:16:59.033Z,22.55
2018-06-27T08:18:26.673Z,22.57
2018-06-27T08:19:54.218Z,22.56
2018-06-27T08:21:22.794Z,22.61
2018-06-27T08:22:48.907Z,22.65
2018-06-27T08:24:16.619Z,22.71
2018-06-27T08:25:43.926Z,22.76
2018-06-27T08:27:11.497Z,22.81
2018-06-27T08:28:38.867Z,22.83
2018-06-27T08:30:06.550Z,22.75
2018-06-27T08:31:35.107Z,22.69
2018-06-27T08:33:01.687Z,22.63
2018-06-27T08:34:29.133Z,22.60
2018-06-27T08:35:56.755Z,22.67
2018-06-27T08:37:24.119Z,22.75
2018-06-27T08:38:51.713Z,22.79
2018-06-27T08:40:19.409Z,22.82
2018-06-27T08:41:46.724Z,22.85
2018-06-27T08:43:14.303Z,22.67
2018-06-27T08:44:41.952Z,22.61
2018-06-27T08:46:10.537Z,22.57
2018-06-27T08:47:37.041Z,22.66
2018-06-27T08:49:05.550Z,22.77
2018-06-27T08:50:33.010Z,22.83
2018-06-27T08:52:00.478Z,22.91
2018-06-27T08:53:27.883Z,23.00
2018-06-27T08:54:54.425Z,23.05
2018-06-27T08:56:22.857Z,23.11
2018-06-27T08:57:49.543Z,23.13
2018-06-27T08:59:17.953Z,23.04
2018-06-27T09:00:44.224Z,22.97
2018-06-27T09:02:11.752Z,22.95
2018-06-27T09:03:39.297Z,22.98
2018-06-27T09:05:06.812Z,23.08
2018-06-27T09:06:35.317Z,23.16
2018-06-27T09:08:02.041Z,23.04
2018-06-27T09:09:30.550Z,22.89
2018-06-27T09:10:57.110Z,22.78
2018-06-27T09:12:25.830Z,22.85
2018-06-27T09:13:52.463Z,22.96
2018-06-27T09:15:19.770Z,23.05
2018-06-27T09:16:47.406Z,23.13
2018-06-27T09:18:15.117Z,23.20
2018-06-27T09:19:42.578Z,23.29
2018-06-27T09:21:10.100Z,23.40
2018-06-27T09:22:37.627Z,23.43
2018-06-27T09:24:05.049Z,23.31
2018-06-27T09:25:33.483Z,23.35
2018-06-27T09:27:00.030Z,23.41
2018-06-27T09:28:28.733Z,23.51
2018-06-27T09:29:55.236Z,23.58
2018-06-27T09:31:23.005Z,23.59
2018-06-27T09:32:50.655Z,23.63
2018-06-27T09:34:18.461Z,23.57
2018-06-27T09:35:45.855Z,23.56
2018-06-27T09:37:13.395Z,23.62
2018-06-27T09:38:41.085Z,23.71
2018-06-27T09:40:08.565Z,23.73
2018-06-27T09:41:36.148Z,23.65
2018-06-27T09:43:03.617Z,23.52
2018-06-27T09:44:32.394Z,23.36
2018-06-27T09:45:59.745Z,23.21
2018-06-27T09:47:26.469Z,23.11
2018-06-27T09:48:53.970Z,23.16
2018-06-27T09:50:22.611Z,23.31
2018-06-27T09:51:50.068Z,23.26
2018-06-27T09:53:16.626Z,23.19
2018-06-27T09:54:44.088Z,23.21
2018-06-27T09:56:12.857Z,23.28
2018-06-27T09:57:40.378Z,23.24
2018-06-27T09:59:06.857Z,23.23
2018-06-27T10:00:34.228Z,23.25
2018-06-27T10:02:03.258Z,23.29
2018-06-27T10:03:29.818Z,23.39
2018-06-27T10:04:57.537Z,23.40
2018-06-27T10:06:25.069Z,23.40
2018-06-27T10:07:52.470Z,23.48
2018-06-27T10:09:20.189Z,23.57
2018-06-27T10:10:47.871Z,23.57
2018-06-27T10:12:16.167Z,23.50
2018-06-27T10:13:42.714Z,23.52
2018-06-27T10:15:10.171Z,23.47
2018-06-27T10:16:37.471Z,23.53
2018-06-27T10:18:04.971Z,23.52
2018-06-27T10:19:32.374Z,23.56
2018-06-27T10:21:00.907Z,23.46
2018-06-27T10:22:27.568Z,23.42
2018-06-27T10:23:56.002Z,23.49
2018-06-27T10:25:22.674Z,23.61
2018-06-27T10:26:50.295Z,23.70
2018-06-27T10:28:17.927Z,23.75
2018-06-27T10:29:45.460Z,23.77
2018-06-27T10:31:13.243Z,23.72
2018-06-27T10:32:40.829Z,23.72
2018-06-27T10:34:08.535Z,23.76
2018-06-27T10:35:36.100Z,23.77
2018-06-27T10:37:03.537Z,23.62
2018-06-27T10:38:31.045Z,23.42
2018-06-27T10:39:59.774Z,23.43
2018-06-27T10:41:26.321Z,23.47
2018-06-27T10:42:53.706Z,23.52
2018-06-27T10:44:21.262Z,23.68
2018-06-27T10:45:48.765Z,23.85
2018-06-27T10:47:16.584Z,23.95
2018-06-27T10:48:44.109Z,23.96
2018-06-27T10:50:11.753Z,23.97
2018-06-27T10:51:39.267Z,24.09
2018-06-27T10:53:06.717Z,24.18
2018-06-27T10:54:34.393Z,24.35
2018-06-27T10:56:02.199Z,24.39
2018-06-27T10:57:30.900Z,24.33
2018-06-27T10:58:57.480Z,24.35
2018-06-27T11:00:24.882Z,24.37
2018-06-27T11:01:52.578Z,24.30
2018-06-27T11:03:20.109Z,24.35
2018-06-27T11:04:47.748Z,24.49
2018-06-27T11:06:15.521Z,24.66
2018-06-27T11:07:43.146Z,24.81
2018-06-27T11:09:10.746Z,24.82
2018-06-27T11:10:38.417Z,24.94
2018-06-27T11:12:07.037Z,24.93
2018-06-27T11:13:33.387Z,24.82
2018-06-27T11:15:02.051Z,24.90
2018-06-27T11:16:28.739Z,24.86
2018-06-27T11:17:57.416Z,24.68
2018-06-27T11:19:24.027Z,24.50
2018-06-27T11:20:51.555Z,24.57
2018-06-27T11:22:20.278Z,24.60
2018-06-27T11:23:46.806Z,24.79
2018-06-27T11:25:14.495Z,25.04
2018-06-27T11:26:42.129Z,25.28
2018-06-27T11:28:09.824Z,25.45
2018-06-27T11:29:37.402Z,25.53
2018-06-27T11:31:05.003Z,25.53
2018-06-27T11:32:33.496Z,25.48
2018-06-27T11:34:01.056Z,25.56
2018-06-27T11:35:27.592Z,25.75
2018-06-27T11:36:55.305Z,25.90
2018-06-27T11:38:23.028Z,25.90
2018-06-27T11:39:50.487Z,25.77
2018-06-27T11:41:18.122Z,25.58
2018-06-27T11:42:45.757Z,25.38
2018-06-27T11:44:14.426Z,25.14
2018-06-27T11:45:40.941Z,24.81
2018-06-27T11:47:08.562Z,24.52
2018-06-27T11:48:36.098Z,24.46
2018-06-27T11:50:03.582Z,24.69
2018-06-27T11:51:31.213Z,25.06
2018-06-27T11:52:58.605Z,25.24
2018-06-27T11:54:26.188Z,25.33
2018-06-27T11:55:53.899Z,25.52
2018-06-27T11:57:21.524Z,25.79
2018-06-27T11:58:49.013Z,25.98
2018-06-27T12:00:16.424Z,26.04
2018-06-27T12:01:45.267Z,26.16
2018-06-27T12:03:11.797Z,26.36
2018-06-27T12:04:39.140Z,26.32
2018-06-27T12:06:06.703Z,26.10
2018-06-27T12:07:35.184Z,25.74
2018-06-27T12:09:02.743Z,25.55
2018-06-27T12:10:29.232Z,25.56
2018-06-27T12:11:57.841Z,25.56
2018-06-27T12:13:24.409Z,25.63
2018-06-27T12:14:52.153Z,25.58
2018-06-27T12:16:19.683Z,25.34
2018-06-27T12:17:48.257Z,25.12
2018-06-27T12:19:15.847Z,25.07
2018-06-27T12:20:43.427Z,24.94
2018-06-27T12:22:10.051Z,24.97
2018-06-27T12:23:37.688Z,25.17
2018-06-27T12:25:05.392Z,25.55
2018-06-27T12:26:33.002Z,25.74
2018-06-27T12:28:00.389Z,26.05
2018-06-27T12:29:27.810Z,26.34
2018-06-27T12:30:55.562Z,26.73
2018-06-27T12:32:23.243Z,27.01
2018-06-27T12:33:51.882Z,27.19
2018-06-27T12:35:19.644Z,27.12
2018-06-27T12:36:47.056Z,26.87
2018-06-27T12:38:13.577Z,26.82
2018-06-27T12:39:41.294Z,26.88
2018-06-27T12:41:08.802Z,26.78
2018-06-27T12:42:37.594Z,26.58
2018-06-27T12:44:04.138Z,26.34
2018-06-27T12:45:32.853Z,26.07
2018-06-27T12:46:59.503Z,25.82
2018-06-27T12:48:26.999Z,25.73
2018-06-27T12:49:55.659Z,25.79
2018-06-27T12:51:22.133Z,25.96
2018-06-27T12:52:49.672Z,26.13
2018-06-27T12:54:17.309Z,26.28
2018-06-27T12:55:45.994Z,26.33
2018-06-27T12:57:12.650Z,26.26
2018-06-27T12:58:41.276Z,26.23
2018-06-27T13:00:08.938Z,26.09
2018-06-27T13:01:35.479Z,25.99
2018-06-27T13:03:03.074Z,25.90
2018-06-27T13:04:30.619Z,25.80
2018-06-27T13:05:58.246Z,25.74
2018-06-27T13:07:25.913Z,25.66
2018-06-27T13:08:53.627Z,25.54
2018-06-27T13:10:27.170Z,25.45
2018-06-27T13:11:48.546Z,25.34
2018-06-27T13:13:16.230Z,25.34
2018-06-27T13:14:43.497Z,25.36
2018-06-27T13:16:12.106Z,25.44
2018-06-27T13:17:39.380Z,25.40
2018-06-27T13:19:05.810Z,25.30
2018-06-27T13:20:33.483Z,25.18
2018-06-27T13:22:02.164Z,24.98
2018-06-27T13:23:28.853Z,24.84
2018-06-27T13:24:57.466Z,24.77
2018-06-27T13:26:24.029Z,24.77
2018-06-27T13:27:51.630Z,24.78
2018-06-27T13:29:19.236Z,24.80
2018-06-27T13:30:46.946Z,24.77
2018-06-27T13:32:14.428Z,24.79
2018-06-27T13:33:41.984Z,24.83
2018-06-27T13:35:09.555Z,24.84
2018-06-27T13:36:37.058Z,24.84
2018-06-27T13:38:05.594Z,24.86
2018-06-27T13:39:31.824Z,24.84
2018-06-27T13:40:59.145Z,24.83
2018-06-27T13:42:26.949Z,24.77
2018-06-27T13:43:54.561Z,24.68
2018-06-27T13:45:22.351Z,24.56
2018-06-27T13:46:49.936Z,24.39
2018-06-27T13:48:18.439Z,24.24
2018-06-27T13:49:44.709Z,24.16
2018-06-27T13:51:12.180Z,24.17
2018-06-27T13:52:39.839Z,24.17
2018-06-27T13:54:07.257Z,24.22
2018-06-27T13:55:34.950Z,24.27
2018-06-27T13:57:03.506Z,24.37
2018-06-27T13:58:29.986Z,24.43
2018-06-27T13:59:57.673Z,24.45
2018-06-27T14:01:26.391Z,24.43
2018-06-27T14:02:52.749Z,24.40
2018-06-27T14:04:20.347Z,24.41
2018-06-27T14:05:47.764Z,24.40
2018-06-27T14:07:15.519Z,24.34
2018-06-27T14:08:42.989Z,24.31
2018-06-27T14:10:11.595Z,24.25
2018-06-27T14:11:38.242Z,24.16
2018-06-27T14:13:06.725Z,24.11
2018-06-27T14:14:34.244Z,24.08
2018-06-27T14:16:00.596Z,24.11
2018-06-27T14:17:28.270Z,24.16
2018-06-27T14:18:55.713Z,24.23
2018-06-27T14:20:23.267Z,24.31
2018-06-27T14:21:51.793Z,24.37
2018-06-27T14:23:18.444Z,24.41
2018-06-27T14:24:46.042Z,24.39
2018-06-27T14:26:13.456Z,24.36
2018-06-27T14:27:41.067Z,24.28
2018-06-27T14:29:08.675Z,24.18
2018-06-27T14:30:36.371Z,24.06
2018-06-27T14:32:05.035Z,23.94
2018-06-27T14:33:31.654Z,23.88
2018-06-27T14:34:59.273Z,23.86
2018-06-27T14:36:27.849Z,23.84
2018-06-27T14:37:54.357Z,23.84
2018-06-27T14:39:22.014Z,23.90
2018-06-27T14:40:49.772Z,23.96
2018-06-27T14:42:17.315Z,24.01
2018-06-27T14:43:45.877Z,24.05
2018-06-27T14:45:12.179Z,24.07
2018-06-27T14:46:39.738Z,24.11
2018-06-27T14:48:07.116Z,24.14
2018-06-27T14:49:34.677Z,24.17
2018-06-27T14:51:03.043Z,24.16
2018-06-27T14:52:29.627Z,24.16
2018-06-27T14:53:57.227Z,24.15
2018-06-27T14:55:24.857Z,24.15
2018-06-27T14:56:52.435Z,24.15
2018-06-27T14:58:20.944Z,24.14
2018-06-27T14:59:47.551Z,24.13
2018-06-27T15:01:15.065Z,24.08
2018-06-27T15:02:42.730Z,23.96
2018-06-27T15:04:10.281Z,23.85
2018-06-27T15:05:37.796Z,23.82
2018-06-27T15:07:05.249Z,23.77
2018-06-27T15:08:33.644Z,23.77
2018-06-27T15:10:00.055Z,23.76
2018-06-27T15:11:27.760Z,23.76
2018-06-27T15:12:55.095Z,23.78
2018-06-27T15:14:22.788Z,23.80
2018-06-27T15:15:50.374Z,23.82
2018-06-27T15:17:17.470Z,23.84
2018-06-27T15:18:46.039Z,23.86
2018-06-27T15:20:12.474Z,23.86
2018-06-27T15:21:40.164Z,23.84
2018-06-27T15:23:07.759Z,23.78
2018-06-27T15:24:35.336Z,23.72
2018-06-27T15:26:02.774Z,23.70
2018-06-27T15:27:30.375Z,23.70
2018-06-27T15:28:57.915Z,23.72
2018-06-27T15:30:25.452Z,23.72
2018-06-27T15:31:54.147Z,23.72
2018-06-27T15:33:20.567Z,23.73
2018-06-27T15:34:49.079Z,23.73
2018-06-27T15:36:15.583Z,23.72
2018-06-27T15:37:43.011Z,23.70
2018-06-27T15:39:10.752Z,23.65
2018-06-27T15:40:38.129Z,23.62
2018-06-27T15:42:05.775Z,23.59
2018-06-27T15:43:33.474Z,23.58
2018-06-27T15:45:01.086Z,23.58
2018-06-27T15:46:28.433Z,23.56
2018-06-27T15:47:55.969Z,23.52
2018-06-27T15:49:24.630Z,23.47
2018-06-27T15:50:51.171Z,23.45
2018-06-27T15:52:18.857Z,23.44
2018-06-27T15:53:47.308Z,23.44
2018-06-27T15:55:13.970Z,23.40
2018-06-27T15:56:41.453Z,23.36
2018-06-27T15:58:10.021Z,23.32
2018-06-27T15:59:37.590Z,23.29
2018-06-27T16:01:07.181Z,23.27
2018-06-27T16:02:32.420Z,23.25
2018-06-27T16:04:00.062Z,23.23
2018-06-27T16:05:26.659Z,23.22
2018-06-27T16:06:54.314Z,23.24
2018-06-27T16:08:22.495Z,23.22
2018-06-27T16:09:49.022Z,23.23
2018-06-27T16:11:16.633Z,23.23
2018-06-27T16:12:44.947Z,23.23
2018-06-27T16:14:11.390Z,23.23
2018-06-27T16:15:38.908Z,23.20
2018-06-27T16:17:07.423Z,23.17
2018-06-27T16:18:33.741Z,23.15
2018-06-27T16:20:02.414Z,23.13
2018-06-27T16:21:29.936Z,23.13
2018-06-27T16:22:56.497Z,23.10
2018-06-27T16:24:24.236Z,23.07
2018-06-27T16:25:51.829Z,23.05
2018-06-27T16:27:19.331Z,23.02
2018-06-27T16:28:46.896Z,23.00
2018-06-27T16:30:14.362Z,22.98
2018-06-27T16:31:41.965Z,22.96
2018-06-27T16:33:09.591Z,22.95
2018-06-27T16:34:38.185Z,22.95
2018-06-27T16:36:05.722Z,22.94
2018-06-27T16:37:32.077Z,22.93
2018-06-27T16:38:59.490Z,22.88
2018-06-27T16:40:26.966Z,22.86
2018-06-27T16:41:55.712Z,22.85
2018-06-27T16:43:23.260Z,22.83
2018-06-27T16:44:49.686Z,22.82
2018-06-27T16:46:18.272Z,22.81
2018-06-27T16:47:44.399Z,22.80
2018-06-27T16:49:11.934Z,22.77
2018-06-27T16:50:40.695Z,22.74
2018-06-27T16:52:07.188Z,22.73
2018-06-27T16:53:34.756Z,22.74
2018-06-27T16:55:02.100Z,22.73
2018-06-27T16:56:29.413Z,22.71
2018-06-27T16:57:56.882Z,22.69
2018-06-27T16:59:25.536Z,22.66
2018-06-27T17:00:52.170Z,22.66
2018-06-27T17:02:20.512Z,22.65
2018-06-27T17:03:48.210Z,22.65
2018-06-27T17:05:14.870Z,22.65
2018-06-27T17:06:42.552Z,22.64
2018-06-27T17:08:09.961Z,22.64
2018-06-27T17:09:37.363Z,22.64
2018-06-27T17:11:04.882Z,22.63
2018-06-27T17:12:32.048Z,22.61
2018-06-27T17:13:59.716Z,22.59
2018-06-27T17:15:27.164Z,22.56
2018-06-27T17:16:54.498Z,22.54
2018-06-27T17:18:23.209Z,22.51
2018-06-27T17:19:49.818Z,22.49
2018-06-27T17:21:17.492Z,22.48
2018-06-27T17:22:44.839Z,22.46
2018-06-27T17:24:12.098Z,22.42
2018-06-27T17:25:39.561Z,22.40
2018-06-27T17:27:07.127Z,22.36
2018-06-27T17:28:34.664Z,22.33
2018-06-27T17:30:01.869Z,22.31
2018-06-27T17:31:29.438Z,22.27
2018-06-27T17:32:56.948Z,22.24
2018-06-27T17:34:24.428Z,22.20
2018-06-27T17:35:51.964Z,22.17
2018-06-27T17:37:19.353Z,22.16
2018-06-27T17:38:47.890Z,22.13
2018-06-27T17:40:14.374Z,22.10
2018-06-27T17:41:42.204Z,22.08
2018-06-27T17:43:09.878Z,22.05
2018-06-27T17:44:37.428Z,22.02
2018-06-27T17:46:04.796Z,22.01
2018-06-27T17:47:32.195Z,21.99
2018-06-27T17:49:00.761Z,21.97
2018-06-27T17:50:27.269Z,21.94
2018-06-27T17:51:54.849Z,21.91
2018-06-27T17:53:22.351Z,21.90
2018-06-27T17:54:49.906Z,21.89
2018-06-27T17:56:17.432Z,21.86
2018-06-27T17:57:45.873Z,21.83
2018-06-27T17:59:12.446Z,21.78
2018-06-27T18:00:40.037Z,21.75
2018-06-27T18:02:07.492Z,21.72
2018-06-27T18:03:34.985Z,21.65
2018-06-27T18:05:02.538Z,21.62
2018-06-27T18:06:29.972Z,21.56
2018-06-27T18:07:57.334Z,21.50
2018-06-27T18:09:24.832Z,21.50
2018-06-27T18:10:52.460Z,21.47
2018-06-27T18:12:20.894Z,21.39
2018-06-27T18:13:47.277Z,21.38
2018-06-27T18:15:15.027Z,21.35
2018-06-27T18:16:42.543Z,21.32
2018-06-27T18:18:09.827Z,21.29
2018-06-27T18:19:37.473Z,21.27
2018-06-27T18:21:04.967Z,21.22
2018-06-27T18:22:32.185Z,21.19
2018-06-27T18:23:59.746Z,21.18
2018-06-27T18:25:28.437Z,21.17
2018-06-27T18:26:54.954Z,21.08
2018-06-27T18:28:23.430Z,21.02
2018-06-27T18:29:49.987Z,21.00
2018-06-27T18:31:17.633Z,20.97
2018-06-27T18:32:45.235Z,20.94
2018-06-27T18:34:12.617Z,20.93
2018-06-27T18:35:40.051Z,20.88
2018-06-27T18:37:07.644Z,20.86
2018-06-27T18:38:35.120Z,20.81
2018-06-27T18:40:02.389Z,20.77
2018-06-27T18:41:29.962Z,20.73
2018-06-27T18:42:57.363Z,20.70
2018-06-27T18:44:24.780Z,20.66
2018-06-27T18:45:52.485Z,20.62
2018-06-27T18:47:21.131Z,20.56
2018-06-27T18:48:47.779Z,20.52
2018-06-27T18:50:15.171Z,20.49
2018-06-27T18:51:42.722Z,20.43
2018-06-27T18:53:10.280Z,20.39
2018-06-27T18:54:37.828Z,20.36
2018-06-27T18:56:06.289Z,20.34
2018-06-27T18:57:32.638Z,20.33
2018-06-27T18:59:00.218Z,20.29
2018-06-27T19:00:27.625Z,20.28
2018-06-27T19:01:55.268Z,20.27
2018-06-27T19:03:22.835Z,20.23
2018-06-27T19:04:50.031Z,20.19
2018-06-27T19:06:17.562Z,20.20
2018-06-27T19:07:44.839Z,20.13
2018-06-27T19:09:13.533Z,20.10
2018-06-27T19:10:40.708Z,20.03
2018-06-27T19:12:07.015Z,19.98
2018-06-27T19:13:35.468Z,19.91
2018-06-27T19:15:01.894Z,19.86
2018-06-27T19:16:29.273Z,19.84
2018-06-27T19:17:56.925Z,19.78
2018-06-27T19:19:25.341Z,19.74
2018-06-27T19:20:52.752Z,19.70
2018-06-27T19:22:19.860Z,19.65
2018-06-27T19:23:46.253Z,19.61
2018-06-27T19:25:14.669Z,19.59
2018-06-27T19:26:41.053Z,19.57
2018-06-27T19:28:08.389Z,19.49
2018-06-27T19:29:37.098Z,19.42
2018-06-27T19:31:04.533Z,19.35
2018-06-27T19:32:31.993Z,19.30
2018-06-27T19:33:58.436Z,19.25
2018-06-27T19:35:25.782Z,19.18
2018-06-27T19:36:54.272Z,19.12
2018-06-27T19:38:20.670Z,19.06
2018-06-27T19:39:48.178Z,19.01
2018-06-27T19:41:15.757Z,18.97
2018-06-27T19:42:43.043Z,18.90
2018-06-27T19:44:10.585Z,18.85
2018-06-27T19:45:38.165Z,18.79
2018-06-27T19:47:05.565Z,18.73
2018-06-27T19:48:33.801Z,18.70
2018-06-27T19:50:00.186Z,18.67
2018-06-27T19:51:27.656Z,18.65
2018-06-27T19:52:55.129Z,18.60
2018-06-27T19:54:22.536Z,18.57
2018-06-27T19:55:50.848Z,18.50
2018-06-27T19:57:17.272Z,18.43
2018-06-27T19:58:44.723Z,18.38
2018-06-27T20:00:12.166Z,18.34
2018-06-27T20:01:39.528Z,18.30
2018-06-27T20:03:07.014Z,18.26
2018-06-27T20:04:35.555Z,18.19
2018-06-27T20:06:02.143Z,18.15
2018-06-27T20:07:29.695Z,18.14
2018-06-27T20:08:57.012Z,18.11
2018-06-27T20:10:25.540Z,18.06
2018-06-27T20:11:51.911Z,18.03
2018-06-27T20:13:19.252Z,18.02
2018-06-27T20:14:46.356Z,18.00
2018-06-27T20:16:13.787Z,17.98
2018-06-27T20:17:41.331Z,17.94
2018-06-27T20:19:09.627Z,17.91
2018-06-27T20:20:35.953Z,17.90
2018-06-27T20:22:03.479Z,17.91
2018-06-27T20:23:30.774Z,17.94
2018-06-27T20:24:58.258Z,17.94
2018-06-27T20:26:25.686Z,17.95
2018-06-27T20:27:53.056Z,17.92
2018-06-27T20:29:20.401Z,17.88
2018-06-27T20:30:49.012Z,17.87
2018-06-27T20:32:15.520Z,17.87
2018-06-27T20:33:43.028Z,17.80
2018-06-27T20:35:10.494Z,17.74
2018-06-27T20:36:37.931Z,17.68
2018-06-27T20:38:05.122Z,17.65
2018-06-27T20:39:32.536Z,17.62
2018-06-27T20:40:59.935Z,17.54
2018-06-27T20:42:27.314Z,17.49
2018-06-27T20:43:55.938Z,17.42
2018-06-27T20:45:22.222Z,17.38
2018-06-27T20:46:49.701Z,17.33
2018-06-27T20:48:17.113Z,17.28
2018-06-27T20:49:44.500Z,17.23
2018-06-27T20:51:11.984Z,17.21
2018-06-27T20:52:40.494Z,17.22
2018-06-27T20:54:06.635Z,17.23
2018-06-27T20:55:34.283Z,17.23
2018-06-27T20:57:01.597Z,17.23
2018-06-27T20:58:28.856Z,17.23
2018-06-27T20:59:56.431Z,17.24
2018-06-27T21:01:23.913Z,17.22
2018-06-27T21:02:51.263Z,17.19
2018-06-27T21:04:19.820Z,17.16
2018-06-27T21:05:47.391Z,17.13
2018-06-27T21:07:14.855Z,17.11
2018-06-27T21:08:41.406Z,17.08
2018-06-27T21:10:09.946Z,17.02
2018-06-27T21:11:37.459Z,16.96
2018-06-27T21:13:03.696Z,16.92
2018-06-27T21:14:31.181Z,16.90
2018-06-27T21:15:59.419Z,16.91
2018-06-27T21:17:25.572Z,16.91
2018-06-27T21:18:54.190Z,16.88
2018-06-27T21:20:20.588Z,16.88
2018-06-27T21:21:47.950Z,16.87
2018-06-27T21:23:15.140Z,16.86
2018-06-27T21:24:42.243Z,16.85
2018-06-27T21:26:09.386Z,16.85
2018-06-27T21:27:36.699Z,16.85
2018-06-27T21:29:05.106Z,16.82
2018-06-27T21:30:31.707Z,16.84
2018-06-27T21:32:00.292Z,16.82
2018-06-27T21:33:27.577Z,16.81
2018-06-27T21:34:53.774Z,16.75
2018-06-27T21:36:21.974Z,16.73
2018-06-27T21:37:49.432Z,16.70
2018-06-27T21:39:15.820Z,16.67
2018-06-27T21:40:43.286Z,16.62
2018-06-27T21:42:10.904Z,16.57
2018-06-27T21:43:39.293Z,16.53
2018-06-27T21:45:06.725Z,16.47
2018-06-27T21:46:33.010Z,16.41
2018-06-27T21:48:00.493Z,16.35
2018-06-27T21:49:28.862Z,16.28
2018-06-27T21:50:55.067Z,16.21
2018-06-27T21:52:22.446Z,16.13
2018-06-27T21:53:49.853Z,16.08
2018-06-27T21:55:17.208Z,16.04
2018-06-27T21:56:45.781Z,16.01
2018-06-27T21:58:13.079Z,15.99
2018-06-27T21:59:40.446Z,15.96
2018-06-27T22:01:06.671Z,15.93
2018-06-27T22:02:34.185Z,15.88
2018-06-27T22:04:01.462Z,15.84
2018-06-27T22:05:28.574Z,15.80
2018-06-27T22:06:55.902Z,15.77
2018-06-27T22:08:23.421Z,15.75
2018-06-27T22:09:50.646Z,15.74
2018-06-27T22:11:18.241Z,15.74
2018-06-27T22:12:45.541Z,15.74
2018-06-27T22:14:12.787Z,15.75
2018-06-27T22:15:40.195Z,15.78
2018-06-27T22:17:07.746Z,15.80
2018-06-27T22:18:36.246Z,15.83
2018-06-27T22:20:02.436Z,15.87
2018-06-27T22:21:29.668Z,15.91
2018-06-27T22:22:57.029Z,15.95
2018-06-27T22:24:25.198Z,15.97
2018-06-27T22:25:51.386Z,16.00
2018-06-27T22:27:19.916Z,16.04
2018-06-27T22:28:45.909Z,16.06
2018-06-27T22:30:14.393Z,16.08
2018-06-27T22:31:40.750Z,16.09
2018-06-27T22:33:09.260Z,16.05
2018-06-27T22:34:36.586Z,16.05
2018-06-27T22:36:03.689Z,16.08
2018-06-27T22:37:29.947Z,16.08
2018-06-27T22:38:57.434Z,16.02
2018-06-27T22:40:24.999Z,15.97
2018-06-27T22:41:53.453Z,15.93
2018-06-27T22:43:19.662Z,15.90
2018-06-27T22:44:48.212Z,15.89
2018-06-27T22:46:14.734Z,15.87
2018-06-27T22:47:41.982Z,15.87
2018-06-27T22:49:10.392Z,15.86
2018-06-27T22:50:36.467Z,15.84
2018-06-27T22:52:03.766Z,15.81
2018-06-27T22:53:32.245Z,15.78
2018-06-27T22:54:58.718Z,15.78
2018-06-27T22:56:25.997Z,15.77
2018-06-27T22:57:53.488Z,15.77
2018-06-27T22:59:20.830Z,15.75
2018-06-27T23:00:48.267Z,15.75
2018-06-27T23:02:15.764Z,15.75
2018-06-27T23:03:43.202Z,15.73
2018-06-27T23:05:11.441Z,15.69
2018-06-27T23:06:38.779Z,15.65
2018-06-27T23:08:05.014Z,15.64
2018-06-27T23:09:33.270Z,15.62
2018-06-27T23:10:59.791Z,15.60
2018-06-27T23:12:28.201Z,15.59
2018-06-27T23:29:45.231Z,15.81
2018-06-27T23:31:21.701Z,15.82
2018-06-27T23:32:47.779Z,15.84
2018-06-27T23:34:15.125Z,15.85
2018-06-27T23:35:42.289Z,15.86
2018-06-27T23:37:09.706Z,15.85
2018-06-27T23:38:37.001Z,15.86
2018-06-27T23:40:04.149Z,15.87
2018-06-27T23:41:31.568Z,15.89